sensor_id;sensor_type;location;lat;lon;timestamp;P1;durP1;ratioP1;P2;durP2;ratioP2
34695;SDS011;20918;51.138;17.370;2023-02-01T00:02:56;9.30;;;1.80;;
34695;SDS011;20918;51.138;17.370;2023-02-01T00:05:57;6.00;;;2.30;;
34695;SDS011;20918;51.138;17.370;2023-02-01T00:08:59;5.40;;;1.70;;
34695;SDS011;20918;51.138;17.370;2023-02-01T00:12:01;6.50;;;1.60;;
34695;SDS011;20918;51.138;17.370;2023-02-01T00:15:04;5.20;;;1.90;;
34695;SDS011;20918;51.138;17.370;2023-02-01T00:18:06;8.80;;;1.70;;
34695;SDS011;20918;51.138;17.370;2023-02-01T00:21:07;7.90;;;1.90;;
34695;SDS011;20918;51.138;17.370;2023-02-01T00:24:09;6.60;;;1.50;;
34695;SDS011;20918;51.138;17.370;2023-02-01T00:27:11;6.90;;;1.70;;
34695;SDS011;20918;51.138;17.370;2023-02-01T00:30:18;6.20;;;1.70;;
34695;SDS011;20918;51.138;17.370;2023-02-01T00:33:18;5.20;;;1.70;;
34695;SDS011;20918;51.138;17.370;2023-02-01T00:36:20;3.60;;;1.60;;
34695;SDS011;20918;51.138;17.370;2023-02-01T00:42:23;7.00;;;1.80;;
34695;SDS011;20918;51.138;17.370;2023-02-01T00:45:25;4.10;;;1.40;;
34695;SDS011;20918;51.138;17.370;2023-02-01T00:48:27;6.60;;;2.10;;
34695;SDS011;20918;51.138;17.370;2023-02-01T00:51:29;4.00;;;1.60;;
34695;SDS011;20918;51.138;17.370;2023-02-01T00:54:30;6.60;;;1.80;;
34695;SDS011;20918;51.138;17.370;2023-02-01T00:57:34;4.90;;;1.60;;
34695;SDS011;20918;51.138;17.370;2023-02-01T01:00:34;8.40;;;1.60;;
34695;SDS011;20918;51.138;17.370;2023-02-01T01:03:39;5.40;;;1.90;;
34695;SDS011;20918;51.138;17.370;2023-02-01T01:06:47;8.60;;;2.30;;
34695;SDS011;20918;51.138;17.370;2023-02-01T01:09:47;7.80;;;2.10;;
34695;SDS011;20918;51.138;17.370;2023-02-01T01:12:48;10.00;;;2.00;;
34695;SDS011;20918;51.138;17.370;2023-02-01T01:15:51;9.20;;;2.50;;
34695;SDS011;20918;51.138;17.370;2023-02-01T01:18:53;6.40;;;1.50;;
34695;SDS011;20918;51.138;17.370;2023-02-01T01:21:55;8.50;;;2.30;;
34695;SDS011;20918;51.138;17.370;2023-02-01T01:24:57;9.10;;;2.00;;
34695;SDS011;20918;51.138;17.370;2023-02-01T01:27:57;10.20;;;1.90;;
34695;SDS011;20918;51.138;17.370;2023-02-01T01:31:00;4.60;;;2.20;;
34695;SDS011;20918;51.138;17.370;2023-02-01T01:34:03;4.00;;;1.70;;
34695;SDS011;20918;51.138;17.370;2023-02-01T01:37:08;9.30;;;2.40;;
34695;SDS011;20918;51.138;17.370;2023-02-01T01:40:12;8.10;;;2.20;;
34695;SDS011;20918;51.138;17.370;2023-02-01T01:43:17;11.20;;;2.60;;
34695;SDS011;20918;51.138;17.370;2023-02-01T01:46:31;15.20;;;3.10;;
34695;SDS011;20918;51.138;17.370;2023-02-01T01:49:38;7.90;;;2.10;;
34695;SDS011;20918;51.138;17.370;2023-02-01T01:52:40;7.30;;;2.50;;
34695;SDS011;20918;51.138;17.370;2023-02-01T01:55:43;6.30;;;2.20;;
34695;SDS011;20918;51.138;17.370;2023-02-01T01:58:49;6.50;;;1.90;;
34695;SDS011;20918;51.138;17.370;2023-02-01T02:01:52;3.90;;;1.60;;
34695;SDS011;20918;51.138;17.370;2023-02-01T02:04:55;6.00;;;2.10;;
34695;SDS011;20918;51.138;17.370;2023-02-01T02:07:57;8.90;;;2.00;;
34695;SDS011;20918;51.138;17.370;2023-02-01T02:11:01;5.30;;;1.60;;
34695;SDS011;20918;51.138;17.370;2023-02-01T02:14:02;7.10;;;2.30;;
34695;SDS011;20918;51.138;17.370;2023-02-01T02:34:45;9.60;;;2.30;;
34695;SDS011;20918;51.138;17.370;2023-02-01T02:45:17;8.20;;;2.00;;
34695;SDS011;20918;51.138;17.370;2023-02-01T02:48:54;7.10;;;2.50;;
34695;SDS011;20918;51.138;17.370;2023-02-01T02:52:06;6.90;;;2.00;;
34695;SDS011;20918;51.138;17.370;2023-02-01T02:55:32;8.80;;;2.50;;
34695;SDS011;20918;51.138;17.370;2023-02-01T02:58:39;12.00;;;2.50;;
34695;SDS011;20918;51.138;17.370;2023-02-01T03:02:01;11.80;;;3.40;;
34695;SDS011;20918;51.138;17.370;2023-02-01T03:05:20;11.50;;;2.60;;
34695;SDS011;20918;51.138;17.370;2023-02-01T03:08:24;9.60;;;2.60;;
34695;SDS011;20918;51.138;17.370;2023-02-01T03:11:28;10.50;;;2.90;;
34695;SDS011;20918;51.138;17.370;2023-02-01T03:14:52;16.20;;;3.30;;
34695;SDS011;20918;51.138;17.370;2023-02-01T03:17:58;14.50;;;3.00;;
34695;SDS011;20918;51.138;17.370;2023-02-01T03:21:06;11.50;;;3.20;;
34695;SDS011;20918;51.138;17.370;2023-02-01T03:24:15;14.90;;;3.90;;
34695;SDS011;20918;51.138;17.370;2023-02-01T03:27:27;17.90;;;3.60;;
34695;SDS011;20918;51.138;17.370;2023-02-01T03:30:36;18.50;;;4.20;;
34695;SDS011;20918;51.138;17.370;2023-02-01T03:33:47;15.30;;;3.50;;
34695;SDS011;20918;51.138;17.370;2023-02-01T03:36:50;17.10;;;4.30;;
34695;SDS011;20918;51.138;17.370;2023-02-01T03:40:03;10.60;;;3.30;;
34695;SDS011;20918;51.138;17.370;2023-02-01T03:43:10;14.10;;;2.70;;
34695;SDS011;20918;51.138;17.370;2023-02-01T03:46:17;16.10;;;3.30;;
34695;SDS011;20918;51.138;17.370;2023-02-01T03:49:33;22.40;;;3.40;;
34695;SDS011;20918;51.138;17.370;2023-02-01T03:52:39;12.90;;;3.30;;
34695;SDS011;20918;51.138;17.370;2023-02-01T03:55:49;11.60;;;3.10;;
34695;SDS011;20918;51.138;17.370;2023-02-01T03:58:52;17.60;;;3.00;;
34695;SDS011;20918;51.138;17.370;2023-02-01T04:02:01;15.00;;;3.50;;
34695;SDS011;20918;51.138;17.370;2023-02-01T04:05:03;22.00;;;3.40;;
34695;SDS011;20918;51.138;17.370;2023-02-01T04:08:06;13.80;;;2.50;;
34695;SDS011;20918;51.138;17.370;2023-02-01T04:11:07;14.90;;;3.80;;
34695;SDS011;20918;51.138;17.370;2023-02-01T04:14:07;25.50;;;5.60;;
34695;SDS011;20918;51.138;17.370;2023-02-01T04:17:08;18.60;;;4.70;;
34695;SDS011;20918;51.138;17.370;2023-02-01T04:20:09;20.50;;;4.90;;
34695;SDS011;20918;51.138;17.370;2023-02-01T04:23:11;17.30;;;4.10;;
34695;SDS011;20918;51.138;17.370;2023-02-01T04:29:13;21.50;;;4.70;;
34695;SDS011;20918;51.138;17.370;2023-02-01T04:32:14;12.80;;;2.90;;
34695;SDS011;20918;51.138;17.370;2023-02-01T04:35:16;19.10;;;3.30;;
34695;SDS011;20918;51.138;17.370;2023-02-01T04:38:18;18.80;;;3.80;;
34695;SDS011;20918;51.138;17.370;2023-02-01T04:41:22;16.60;;;4.70;;
34695;SDS011;20918;51.138;17.370;2023-02-01T04:50:26;18.70;;;3.90;;
34695;SDS011;20918;51.138;17.370;2023-02-01T04:53:27;11.50;;;3.50;;
34695;SDS011;20918;51.138;17.370;2023-02-01T04:56:28;18.00;;;3.60;;
34695;SDS011;20918;51.138;17.370;2023-02-01T04:59:30;19.40;;;4.00;;
34695;SDS011;20918;51.138;17.370;2023-02-01T05:02:32;18.50;;;3.90;;
34695;SDS011;20918;51.138;17.370;2023-02-01T05:05:35;18.10;;;3.50;;
34695;SDS011;20918;51.138;17.370;2023-02-01T05:08:36;10.80;;;3.70;;
34695;SDS011;20918;51.138;17.370;2023-02-01T05:11:37;13.60;;;3.30;;
34695;SDS011;20918;51.138;17.370;2023-02-01T05:14:56;17.40;;;4.30;;
34695;SDS011;20918;51.138;17.370;2023-02-01T05:17:57;14.80;;;4.40;;
34695;SDS011;20918;51.138;17.370;2023-02-01T05:20:58;17.50;;;4.20;;
34695;SDS011;20918;51.138;17.370;2023-02-01T05:23:59;14.20;;;4.40;;
34695;SDS011;20918;51.138;17.370;2023-02-01T05:27:19;13.70;;;4.10;;
34695;SDS011;20918;51.138;17.370;2023-02-01T05:30:20;14.00;;;4.20;;
34695;SDS011;20918;51.138;17.370;2023-02-01T05:33:21;16.70;;;4.70;;
34695;SDS011;20918;51.138;17.370;2023-02-01T05:36:22;15.50;;;3.70;;
34695;SDS011;20918;51.138;17.370;2023-02-01T05:39:23;23.00;;;3.90;;
34695;SDS011;20918;51.138;17.370;2023-02-01T05:42:34;16.20;;;3.80;;
34695;SDS011;20918;51.138;17.370;2023-02-01T05:45:35;13.30;;;3.20;;
34695;SDS011;20918;51.138;17.370;2023-02-01T05:48:36;11.10;;;3.50;;
34695;SDS011;20918;51.138;17.370;2023-02-01T05:51:36;16.80;;;3.70;;
34695;SDS011;20918;51.138;17.370;2023-02-01T05:54:37;11.60;;;3.60;;
34695;SDS011;20918;51.138;17.370;2023-02-01T05:57:37;17.50;;;4.00;;
34695;SDS011;20918;51.138;17.370;2023-02-01T06:00:38;14.70;;;3.40;;
34695;SDS011;20918;51.138;17.370;2023-02-01T06:03:39;14.50;;;3.80;;
34695;SDS011;20918;51.138;17.370;2023-02-01T06:06:40;18.30;;;4.00;;
34695;SDS011;20918;51.138;17.370;2023-02-01T06:09:40;18.60;;;3.70;;
34695;SDS011;20918;51.138;17.370;2023-02-01T06:12:41;16.80;;;3.70;;
34695;SDS011;20918;51.138;17.370;2023-02-01T06:15:42;16.00;;;3.50;;
34695;SDS011;20918;51.138;17.370;2023-02-01T06:18:44;12.80;;;3.50;;
34695;SDS011;20918;51.138;17.370;2023-02-01T06:21:44;17.60;;;3.50;;
34695;SDS011;20918;51.138;17.370;2023-02-01T06:24:45;19.30;;;4.30;;
34695;SDS011;20918;51.138;17.370;2023-02-01T06:27:46;17.70;;;4.50;;
34695;SDS011;20918;51.138;17.370;2023-02-01T06:30:47;19.30;;;3.60;;
34695;SDS011;20918;51.138;17.370;2023-02-01T06:33:48;11.90;;;3.90;;
34695;SDS011;20918;51.138;17.370;2023-02-01T06:36:48;12.30;;;3.10;;
34695;SDS011;20918;51.138;17.370;2023-02-01T06:39:50;15.70;;;3.90;;
34695;SDS011;20918;51.138;17.370;2023-02-01T06:42:51;25.70;;;3.70;;
34695;SDS011;20918;51.138;17.370;2023-02-01T06:45:51;21.00;;;3.80;;
34695;SDS011;20918;51.138;17.370;2023-02-01T06:48:53;12.50;;;4.00;;
34695;SDS011;20918;51.138;17.370;2023-02-01T06:57:56;16.40;;;3.50;;
34695;SDS011;20918;51.138;17.370;2023-02-01T07:00:57;17.00;;;4.20;;
34695;SDS011;20918;51.138;17.370;2023-02-01T07:03:57;19.00;;;3.80;;
34695;SDS011;20918;51.138;17.370;2023-02-01T07:06:58;18.50;;;3.70;;
34695;SDS011;20918;51.138;17.370;2023-02-01T07:09:59;13.90;;;3.90;;
34695;SDS011;20918;51.138;17.370;2023-02-01T07:12:59;14.70;;;3.90;;
34695;SDS011;20918;51.138;17.370;2023-02-01T07:16:00;13.00;;;3.30;;
34695;SDS011;20918;51.138;17.370;2023-02-01T07:19:02;20.40;;;4.00;;
34695;SDS011;20918;51.138;17.370;2023-02-01T07:22:03;14.70;;;4.00;;
34695;SDS011;20918;51.138;17.370;2023-02-01T07:25:03;14.50;;;3.90;;
34695;SDS011;20918;51.138;17.370;2023-02-01T07:31:12;16.90;;;4.00;;
34695;SDS011;20918;51.138;17.370;2023-02-01T07:34:15;13.50;;;3.60;;
34695;SDS011;20918;51.138;17.370;2023-02-01T07:37:16;18.50;;;4.00;;
34695;SDS011;20918;51.138;17.370;2023-02-01T07:43:18;9.90;;;3.80;;
34695;SDS011;20918;51.138;17.370;2023-02-01T07:46:18;13.20;;;4.10;;
34695;SDS011;20918;51.138;17.370;2023-02-01T07:49:19;17.30;;;4.50;;
34695;SDS011;20918;51.138;17.370;2023-02-01T07:52:20;11.10;;;3.40;;
34695;SDS011;20918;51.138;17.370;2023-02-01T07:55:24;14.70;;;3.60;;
34695;SDS011;20918;51.138;17.370;2023-02-01T07:58:25;13.10;;;3.60;;
34695;SDS011;20918;51.138;17.370;2023-02-01T08:01:26;14.20;;;3.70;;
34695;SDS011;20918;51.138;17.370;2023-02-01T08:04:28;12.30;;;3.30;;
34695;SDS011;20918;51.138;17.370;2023-02-01T08:07:29;15.90;;;4.20;;
34695;SDS011;20918;51.138;17.370;2023-02-01T08:10:30;10.80;;;3.20;;
34695;SDS011;20918;51.138;17.370;2023-02-01T08:13:30;15.70;;;3.40;;
34695;SDS011;20918;51.138;17.370;2023-02-01T08:16:33;20.50;;;6.20;;
34695;SDS011;20918;51.138;17.370;2023-02-01T08:19:35;16.80;;;4.60;;
34695;SDS011;20918;51.138;17.370;2023-02-01T08:22:35;17.80;;;5.00;;
34695;SDS011;20918;51.138;17.370;2023-02-01T08:25:36;16.20;;;3.90;;
34695;SDS011;20918;51.138;17.370;2023-02-01T08:28:38;17.00;;;4.10;;
34695;SDS011;20918;51.138;17.370;2023-02-01T08:31:40;18.50;;;4.10;;
34695;SDS011;20918;51.138;17.370;2023-02-01T08:34:41;11.20;;;3.20;;
34695;SDS011;20918;51.138;17.370;2023-02-01T08:37:42;15.60;;;3.70;;
34695;SDS011;20918;51.138;17.370;2023-02-01T08:40:42;12.40;;;4.00;;
34695;SDS011;20918;51.138;17.370;2023-02-01T08:43:43;11.70;;;4.00;;
34695;SDS011;20918;51.138;17.370;2023-02-01T08:46:44;15.80;;;4.20;;
34695;SDS011;20918;51.138;17.370;2023-02-01T08:49:45;14.80;;;4.20;;
34695;SDS011;20918;51.138;17.370;2023-02-01T08:55:50;17.30;;;4.50;;
34695;SDS011;20918;51.138;17.370;2023-02-01T08:58:50;14.60;;;4.20;;
34695;SDS011;20918;51.138;17.370;2023-02-01T09:01:51;14.20;;;4.60;;
34695;SDS011;20918;51.138;17.370;2023-02-01T09:04:52;17.10;;;4.10;;
34695;SDS011;20918;51.138;17.370;2023-02-01T09:07:55;15.40;;;4.10;;
34695;SDS011;20918;51.138;17.370;2023-02-01T09:11:03;16.60;;;4.40;;
34695;SDS011;20918;51.138;17.370;2023-02-01T09:14:06;15.50;;;4.00;;
34695;SDS011;20918;51.138;17.370;2023-02-01T09:17:07;13.20;;;3.40;;
34695;SDS011;20918;51.138;17.370;2023-02-01T09:20:08;12.30;;;3.70;;
34695;SDS011;20918;51.138;17.370;2023-02-01T09:23:09;13.70;;;4.20;;
34695;SDS011;20918;51.138;17.370;2023-02-01T09:26:10;13.50;;;3.60;;
34695;SDS011;20918;51.138;17.370;2023-02-01T09:29:11;15.20;;;3.20;;
34695;SDS011;20918;51.138;17.370;2023-02-01T09:32:12;15.30;;;3.70;;
34695;SDS011;20918;51.138;17.370;2023-02-01T09:35:13;12.80;;;3.80;;
34695;SDS011;20918;51.138;17.370;2023-02-01T09:38:13;13.20;;;4.60;;
34695;SDS011;20918;51.138;17.370;2023-02-01T09:47:50;14.80;;;4.50;;
34695;SDS011;20918;51.138;17.370;2023-02-01T09:50:59;13.50;;;4.20;;
34695;SDS011;20918;51.138;17.370;2023-02-01T09:54:09;11.80;;;4.20;;
34695;SDS011;20918;51.138;17.370;2023-02-01T09:57:17;19.00;;;4.90;;
34695;SDS011;20918;51.138;17.370;2023-02-01T10:00:27;13.00;;;5.10;;
34695;SDS011;20918;51.138;17.370;2023-02-01T10:03:34;17.50;;;4.20;;
34695;SDS011;20918;51.138;17.370;2023-02-01T10:13:10;6.70;;;2.90;;
34695;SDS011;20918;51.138;17.370;2023-02-01T10:17:00;11.20;;;2.90;;
34695;SDS011;20918;51.138;17.370;2023-02-01T10:26:39;8.70;;;2.70;;
34695;SDS011;20918;51.138;17.370;2023-02-01T10:29:45;7.20;;;3.20;;
34695;SDS011;20918;51.138;17.370;2023-02-01T10:33:02;7.50;;;3.00;;
34695;SDS011;20918;51.138;17.370;2023-02-01T10:36:22;10.30;;;3.80;;
34695;SDS011;20918;51.138;17.370;2023-02-01T10:39:27;11.40;;;3.60;;
34695;SDS011;20918;51.138;17.370;2023-02-01T10:42:28;10.30;;;4.10;;
34695;SDS011;20918;51.138;17.370;2023-02-01T10:45:32;9.30;;;3.30;;
34695;SDS011;20918;51.138;17.370;2023-02-01T10:48:38;14.50;;;3.40;;
34695;SDS011;20918;51.138;17.370;2023-02-01T10:55:25;13.60;;;4.10;;
34695;SDS011;20918;51.138;17.370;2023-02-01T10:58:42;11.60;;;4.40;;
34695;SDS011;20918;51.138;17.370;2023-02-01T11:01:45;12.80;;;4.10;;
34695;SDS011;20918;51.138;17.370;2023-02-01T11:04:48;12.90;;;4.00;;
34695;SDS011;20918;51.138;17.370;2023-02-01T11:07:49;14.70;;;4.50;;
34695;SDS011;20918;51.138;17.370;2023-02-01T11:11:02;8.80;;;3.70;;
34695;SDS011;20918;51.138;17.370;2023-02-01T11:23:32;13.90;;;4.20;;
34695;SDS011;20918;51.138;17.370;2023-02-01T11:26:39;8.70;;;3.80;;
34695;SDS011;20918;51.138;17.370;2023-02-01T11:29:42;9.60;;;3.50;;
34695;SDS011;20918;51.138;17.370;2023-02-01T11:32:49;11.00;;;3.50;;
34695;SDS011;20918;51.138;17.370;2023-02-01T11:35:50;9.10;;;3.90;;
34695;SDS011;20918;51.138;17.370;2023-02-01T11:38:54;15.70;;;4.00;;
34695;SDS011;20918;51.138;17.370;2023-02-01T11:42:14;9.40;;;3.40;;
34695;SDS011;20918;51.138;17.370;2023-02-01T11:45:20;9.80;;;4.30;;
34695;SDS011;20918;51.138;17.370;2023-02-01T11:48:26;11.30;;;3.80;;
34695;SDS011;20918;51.138;17.370;2023-02-01T11:51:35;12.40;;;4.00;;
34695;SDS011;20918;51.138;17.370;2023-02-01T11:54:54;11.00;;;4.10;;
34695;SDS011;20918;51.138;17.370;2023-02-01T11:58:20;7.30;;;3.70;;
34695;SDS011;20918;51.138;17.370;2023-02-01T12:48:43;7.70;;;3.60;;
34695;SDS011;20918;51.138;17.370;2023-02-01T12:52:05;7.10;;;3.20;;
34695;SDS011;20918;51.138;17.370;2023-02-01T13:01:39;5.10;;;2.90;;
34695;SDS011;20918;51.138;17.370;2023-02-01T13:04:58;5.30;;;3.00;;
34695;SDS011;20918;51.138;17.370;2023-02-01T13:08:17;9.40;;;4.60;;
34695;SDS011;20918;51.138;17.370;2023-02-01T13:11:30;8.60;;;4.20;;
34695;SDS011;20918;51.138;17.370;2023-02-01T13:17:46;8.60;;;3.90;;
34695;SDS011;20918;51.138;17.370;2023-02-01T13:20:52;6.00;;;3.50;;
34695;SDS011;20918;51.138;17.370;2023-02-01T13:24:42;6.30;;;3.70;;
34695;SDS011;20918;51.138;17.370;2023-02-01T13:27:43;7.40;;;4.00;;
34695;SDS011;20918;51.138;17.370;2023-02-01T13:30:49;9.10;;;3.60;;
34695;SDS011;20918;51.138;17.370;2023-02-01T13:44:34;6.40;;;3.10;;
34695;SDS011;20918;51.138;17.370;2023-02-01T13:47:42;4.80;;;2.90;;
34695;SDS011;20918;51.138;17.370;2023-02-01T13:50:51;4.70;;;2.90;;
34695;SDS011;20918;51.138;17.370;2023-02-01T13:53:54;7.30;;;2.80;;
34695;SDS011;20918;51.138;17.370;2023-02-01T13:56:55;8.00;;;3.20;;
34695;SDS011;20918;51.138;17.370;2023-02-01T14:00:33;5.70;;;3.20;;
34695;SDS011;20918;51.138;17.370;2023-02-01T14:03:46;7.10;;;4.10;;
34695;SDS011;20918;51.138;17.370;2023-02-01T14:06:48;8.10;;;3.60;;
34695;SDS011;20918;51.138;17.370;2023-02-01T14:09:53;7.80;;;3.60;;
34695;SDS011;20918;51.138;17.370;2023-02-01T14:13:02;4.70;;;2.70;;
34695;SDS011;20918;51.138;17.370;2023-02-01T14:22:39;7.50;;;2.90;;
34695;SDS011;20918;51.138;17.370;2023-02-01T14:25:40;6.40;;;3.50;;
34695;SDS011;20918;51.138;17.370;2023-02-01T14:28:43;11.40;;;3.70;;
34695;SDS011;20918;51.138;17.370;2023-02-01T14:32:02;11.30;;;3.30;;
34695;SDS011;20918;51.138;17.370;2023-02-01T14:35:29;5.70;;;3.20;;
34695;SDS011;20918;51.138;17.370;2023-02-01T14:38:30;7.00;;;3.90;;
34695;SDS011;20918;51.138;17.370;2023-02-01T14:41:40;9.70;;;3.50;;
34695;SDS011;20918;51.138;17.370;2023-02-01T14:44:46;6.50;;;3.50;;
34695;SDS011;20918;51.138;17.370;2023-02-01T14:51:17;10.60;;;4.40;;
34695;SDS011;20918;51.138;17.370;2023-02-01T14:54:42;7.10;;;4.00;;
34695;SDS011;20918;51.138;17.370;2023-02-01T14:57:50;10.10;;;3.30;;
34695;SDS011;20918;51.138;17.370;2023-02-01T15:04:05;10.00;;;3.50;;
34695;SDS011;20918;51.138;17.370;2023-02-01T15:07:11;8.00;;;3.40;;
34695;SDS011;20918;51.138;17.370;2023-02-01T15:10:14;15.10;;;4.30;;
34695;SDS011;20918;51.138;17.370;2023-02-01T15:13:20;7.20;;;3.80;;
34695;SDS011;20918;51.138;17.370;2023-02-01T15:16:28;7.60;;;3.50;;
34695;SDS011;20918;51.138;17.370;2023-02-01T15:19:30;11.30;;;4.00;;
34695;SDS011;20918;51.138;17.370;2023-02-01T15:22:31;13.90;;;4.60;;
34695;SDS011;20918;51.138;17.370;2023-02-01T15:25:33;13.40;;;5.40;;
34695;SDS011;20918;51.138;17.370;2023-02-01T15:28:39;18.90;;;6.70;;
34695;SDS011;20918;51.138;17.370;2023-02-01T15:31:44;12.20;;;4.90;;
34695;SDS011;20918;51.138;17.370;2023-02-01T15:34:48;22.60;;;6.90;;
34695;SDS011;20918;51.138;17.370;2023-02-01T15:37:50;16.20;;;5.80;;
34695;SDS011;20918;51.138;17.370;2023-02-01T15:46:57;14.40;;;6.30;;
34695;SDS011;20918;51.138;17.370;2023-02-01T15:50:03;12.70;;;5.00;;
34695;SDS011;20918;51.138;17.370;2023-02-01T15:53:03;11.40;;;4.00;;
34695;SDS011;20918;51.138;17.370;2023-02-01T15:56:05;14.30;;;4.90;;
34695;SDS011;20918;51.138;17.370;2023-02-01T15:59:15;15.70;;;5.80;;
34695;SDS011;20918;51.138;17.370;2023-02-01T16:02:32;9.60;;;4.00;;
34695;SDS011;20918;51.138;17.370;2023-02-01T16:05:40;14.30;;;5.20;;
34695;SDS011;20918;51.138;17.370;2023-02-01T16:12:03;13.80;;;4.80;;
34695;SDS011;20918;51.138;17.370;2023-02-01T16:15:05;14.80;;;4.90;;
34695;SDS011;20918;51.138;17.370;2023-02-01T16:18:07;11.90;;;4.60;;
34695;SDS011;20918;51.138;17.370;2023-02-01T16:21:09;13.30;;;5.00;;
34695;SDS011;20918;51.138;17.370;2023-02-01T16:24:10;9.80;;;4.40;;
34695;SDS011;20918;51.138;17.370;2023-02-01T16:27:14;13.90;;;5.00;;
34695;SDS011;20918;51.138;17.370;2023-02-01T16:30:14;8.80;;;4.50;;
34695;SDS011;20918;51.138;17.370;2023-02-01T16:33:17;10.60;;;4.90;;
34695;SDS011;20918;51.138;17.370;2023-02-01T16:36:22;10.50;;;4.50;;
34695;SDS011;20918;51.138;17.370;2023-02-01T16:39:23;12.20;;;4.70;;
34695;SDS011;20918;51.138;17.370;2023-02-01T16:42:24;15.00;;;5.50;;
34695;SDS011;20918;51.138;17.370;2023-02-01T16:45:25;14.40;;;5.60;;
34695;SDS011;20918;51.138;17.370;2023-02-01T16:48:27;17.30;;;5.90;;
34695;SDS011;20918;51.138;17.370;2023-02-01T16:51:31;11.30;;;5.30;;
34695;SDS011;20918;51.138;17.370;2023-02-01T16:54:35;13.30;;;5.70;;
34695;SDS011;20918;51.138;17.370;2023-02-01T16:57:40;12.30;;;5.40;;
34695;SDS011;20918;51.138;17.370;2023-02-01T17:00:43;15.30;;;5.20;;
34695;SDS011;20918;51.138;17.370;2023-02-01T17:03:44;11.60;;;4.70;;
34695;SDS011;20918;51.138;17.370;2023-02-01T17:06:47;11.30;;;4.80;;
34695;SDS011;20918;51.138;17.370;2023-02-01T17:09:49;12.20;;;4.40;;
34695;SDS011;20918;51.138;17.370;2023-02-01T17:19:04;8.90;;;4.10;;
34695;SDS011;20918;51.138;17.370;2023-02-01T17:22:11;8.60;;;3.90;;
34695;SDS011;20918;51.138;17.370;2023-02-01T17:25:14;5.90;;;3.60;;
34695;SDS011;20918;51.138;17.370;2023-02-01T17:28:18;7.40;;;3.70;;
34695;SDS011;20918;51.138;17.370;2023-02-01T17:31:19;10.20;;;3.60;;
34695;SDS011;20918;51.138;17.370;2023-02-01T17:34:20;6.40;;;3.60;;
34695;SDS011;20918;51.138;17.370;2023-02-01T17:37:26;11.70;;;4.20;;
34695;SDS011;20918;51.138;17.370;2023-02-01T17:40:32;7.80;;;4.30;;
34695;SDS011;20918;51.138;17.370;2023-02-01T17:43:34;10.60;;;4.50;;
34695;SDS011;20918;51.138;17.370;2023-02-01T17:46:36;11.30;;;5.00;;
34695;SDS011;20918;51.138;17.370;2023-02-01T17:55:40;13.50;;;5.40;;
34695;SDS011;20918;51.138;17.370;2023-02-01T17:58:44;12.80;;;5.50;;
34695;SDS011;20918;51.138;17.370;2023-02-01T18:01:46;11.20;;;6.20;;
34695;SDS011;20918;51.138;17.370;2023-02-01T18:04:50;16.70;;;7.10;;
34695;SDS011;20918;51.138;17.370;2023-02-01T18:07:51;17.30;;;7.80;;
34695;SDS011;20918;51.138;17.370;2023-02-01T18:10:56;15.90;;;7.70;;
34695;SDS011;20918;51.138;17.370;2023-02-01T18:14:01;17.80;;;7.00;;
34695;SDS011;20918;51.138;17.370;2023-02-01T18:17:03;15.50;;;7.30;;
34695;SDS011;20918;51.138;17.370;2023-02-01T18:23:05;15.50;;;6.20;;
34695;SDS011;20918;51.138;17.370;2023-02-01T18:26:11;16.40;;;5.20;;
34695;SDS011;20918;51.138;17.370;2023-02-01T18:29:20;14.30;;;5.60;;
34695;SDS011;20918;51.138;17.370;2023-02-01T18:32:20;26.10;;;8.90;;
34695;SDS011;20918;51.138;17.370;2023-02-01T18:35:27;17.40;;;6.50;;
34695;SDS011;20918;51.138;17.370;2023-02-01T18:41:35;21.50;;;6.80;;
34695;SDS011;20918;51.138;17.370;2023-02-01T18:44:36;23.80;;;8.50;;
34695;SDS011;20918;51.138;17.370;2023-02-01T18:47:36;15.90;;;6.20;;
34695;SDS011;20918;51.138;17.370;2023-02-01T18:50:39;27.40;;;8.20;;
34695;SDS011;20918;51.138;17.370;2023-02-01T18:53:41;21.00;;;7.40;;
34695;SDS011;20918;51.138;17.370;2023-02-01T18:56:42;24.70;;;9.10;;
34695;SDS011;20918;51.138;17.370;2023-02-01T18:59:43;22.20;;;8.10;;
34695;SDS011;20918;51.138;17.370;2023-02-01T19:02:43;18.80;;;6.00;;
34695;SDS011;20918;51.138;17.370;2023-02-01T19:05:47;14.10;;;5.00;;
34695;SDS011;20918;51.138;17.370;2023-02-01T19:08:48;13.30;;;5.20;;
34695;SDS011;20918;51.138;17.370;2023-02-01T19:11:50;13.70;;;4.70;;
34695;SDS011;20918;51.138;17.370;2023-02-01T19:14:51;10.00;;;5.10;;
34695;SDS011;20918;51.138;17.370;2023-02-01T19:17:52;10.20;;;4.40;;
34695;SDS011;20918;51.138;17.370;2023-02-01T19:20:54;8.70;;;4.10;;
34695;SDS011;20918;51.138;17.370;2023-02-01T19:24:02;9.80;;;4.60;;
34695;SDS011;20918;51.138;17.370;2023-02-01T19:30:04;10.50;;;4.90;;
34695;SDS011;20918;51.138;17.370;2023-02-01T19:33:05;11.80;;;6.30;;
34695;SDS011;20918;51.138;17.370;2023-02-01T19:36:06;12.00;;;5.30;;
34695;SDS011;20918;51.138;17.370;2023-02-01T19:39:09;10.60;;;5.00;;
34695;SDS011;20918;51.138;17.370;2023-02-01T19:42:09;16.40;;;7.10;;
34695;SDS011;20918;51.138;17.370;2023-02-01T19:45:10;13.40;;;6.00;;
34695;SDS011;20918;51.138;17.370;2023-02-01T19:48:11;14.60;;;6.40;;
34695;SDS011;20918;51.138;17.370;2023-02-01T19:51:19;13.80;;;6.40;;
34695;SDS011;20918;51.138;17.370;2023-02-01T19:54:20;11.80;;;5.80;;
34695;SDS011;20918;51.138;17.370;2023-02-01T19:57:21;11.50;;;5.60;;
34695;SDS011;20918;51.138;17.370;2023-02-01T20:00:23;11.40;;;5.40;;
34695;SDS011;20918;51.138;17.370;2023-02-01T20:03:26;9.30;;;4.90;;
34695;SDS011;20918;51.138;17.370;2023-02-01T20:06:28;7.80;;;4.70;;
34695;SDS011;20918;51.138;17.370;2023-02-01T20:09:29;7.00;;;4.10;;
34695;SDS011;20918;51.138;17.370;2023-02-01T20:12:34;8.20;;;3.70;;
34695;SDS011;20918;51.138;17.370;2023-02-01T20:15:34;8.50;;;3.80;;
34695;SDS011;20918;51.138;17.370;2023-02-01T20:18:36;7.60;;;3.90;;
34695;SDS011;20918;51.138;17.370;2023-02-01T20:21:38;6.70;;;3.90;;
34695;SDS011;20918;51.138;17.370;2023-02-01T20:24:42;5.30;;;3.00;;
34695;SDS011;20918;51.138;17.370;2023-02-01T20:27:42;7.00;;;3.40;;
34695;SDS011;20918;51.138;17.370;2023-02-01T20:30:44;7.40;;;3.30;;
34695;SDS011;20918;51.138;17.370;2023-02-01T20:33:47;6.20;;;2.60;;
34695;SDS011;20918;51.138;17.370;2023-02-01T20:39:49;2.70;;;2.20;;
34695;SDS011;20918;51.138;17.370;2023-02-01T20:42:50;4.70;;;2.40;;
34695;SDS011;20918;51.138;17.370;2023-02-01T20:48:52;3.80;;;2.60;;
34695;SDS011;20918;51.138;17.370;2023-02-01T20:54:53;8.90;;;2.70;;
34695;SDS011;20918;51.138;17.370;2023-02-01T20:57:54;4.00;;;2.40;;
34695;SDS011;20918;51.138;17.370;2023-02-01T21:03:56;5.80;;;2.40;;
34695;SDS011;20918;51.138;17.370;2023-02-01T21:06:57;6.60;;;2.60;;
34695;SDS011;20918;51.138;17.370;2023-02-01T21:09:58;6.10;;;2.90;;
34695;SDS011;20918;51.138;17.370;2023-02-01T21:12:59;3.10;;;2.00;;
34695;SDS011;20918;51.138;17.370;2023-02-01T21:16:01;4.10;;;2.60;;
34695;SDS011;20918;51.138;17.370;2023-02-01T21:19:04;3.90;;;2.30;;
34695;SDS011;20918;51.138;17.370;2023-02-01T21:25:05;5.90;;;2.80;;
34695;SDS011;20918;51.138;17.370;2023-02-01T21:28:06;6.50;;;2.90;;
34695;SDS011;20918;51.138;17.370;2023-02-01T21:31:08;4.70;;;2.80;;
34695;SDS011;20918;51.138;17.370;2023-02-01T21:34:09;4.60;;;2.80;;
34695;SDS011;20918;51.138;17.370;2023-02-01T21:40:10;3.50;;;2.50;;